Cordova, AK (99574)

9:59 PM AKDT on July 25, 2016 (GMT -0800)
APRSWXNET | | Change Station

Elev 13 ft 60.54 °N, 145.77 °W | Updated 51 minutes ago

Overcast
Overcast
56 °F
Feels Like 56 °F
N
5
Wind Variable Wind from NE
Gusts 0.0 mph

Today
High -- | Low -- °F
--% Chance of Precip.
Yesterday
High -- | Low -- °F
Precip. -- in
Pressure 29.98 in
Visibility 10.0 miles
Clouds Few 1200 ft
Mostly Cloudy 3100 ft
Overcast 5500 ft
Dew Point 51 °F
Humidity 82%
Rainfall in
Snow Depth Not available.
5:05 AM 10:32 PM
Waning Gibbous, 58% visible
METAR PACV 260553Z 00000KT 10SM FEW012 BKN031 OVC055 12/11 A2998 RMK AO2 RAE26 SLP152 P0001 60012 T01220111 10139 20122 53004
Pressure 29.98 in
Visibility 10.0 miles
Clouds Few 1200 ft
Mostly Cloudy 3100 ft
Overcast 5500 ft
Dew Point 51 °F
Humidity 82%
Rainfall in
Snow Depth Not available.
5:05 AM 10:32 PM
Waning Gibbous, 58% visible
METAR PACV 260553Z 00000KT 10SM FEW012 BKN031 OVC055 12/11 A2998 RMK AO2 RAE26 SLP152 P0001 60012 T01220111 10139 20122 53004

10-Day Weather Forecast

Almanac

Astronomy

Jul. 25, 2016 Rise Set
Actual Time
Civil Twilight
Nautical Twilight
Astronomical Twilight
Moon
Length of Visible Light
Length of Day
Tomorrow will be .
, % of the Moon is Illuminated

Today's Extremes

State Highs State Lows

Community

WunderPhotos

Upload Photos

1,927,547 photos uploaded!

WunderBlog® & News

Nearby

Air Quality

  Air Quality AQ Index Pollutant
Not available.

Snow Depth

Station Depth Elevation

Earthquake Activity

City Distance Mag. Time & Date
Minimum magnitude displayed is 2.5.

Coastal Water Temperatures

Place Temperature

Stations

Nearby Weather Stations

Station Location Temp. Windchill Dew Point Humidity Wind Precip. Elev Updated Type
                   

Watches & Warnings

There are currently no watches in effect.